createdAt,value
2019-05-29T00:00:18.270Z,99.90
2019-05-29T00:05:24.514Z,99.90
2019-05-29T00:10:29.620Z,99.90
2019-05-29T00:15:34.388Z,99.90
2019-05-29T00:20:39.310Z,99.90
2019-05-29T00:25:44.163Z,99.90
2019-05-29T00:30:49.034Z,99.90
2019-05-29T00:35:54.128Z,99.90
2019-05-29T00:40:59.011Z,99.90
2019-05-29T00:46:03.934Z,99.90
2019-05-29T00:51:08.932Z,99.90
2019-05-29T00:56:14.643Z,99.90
2019-05-29T01:01:20.365Z,99.90
2019-05-29T01:06:25.450Z,99.90
2019-05-29T01:11:30.372Z,99.30
2019-05-29T01:16:35.147Z,99.50
2019-05-29T01:21:39.923Z,99.80
2019-05-29T01:26:46.142Z,99.50
2019-05-29T01:31:50.975Z,99.50
2019-05-29T01:36:55.824Z,99.60
2019-05-29T01:42:01.893Z,99.40
2019-05-29T01:47:06.614Z,99.50
2019-05-29T01:52:11.341Z,99.50
2019-05-29T01:57:17.742Z,99.20
2019-05-29T02:02:23.914Z,99.40
2019-05-29T02:07:28.748Z,99.60
2019-05-29T02:12:33.518Z,99.50
2019-05-29T02:17:38.367Z,99.30
2019-05-29T02:22:43.209Z,99.30
2019-05-29T02:27:47.909Z,99.50
2019-05-29T02:32:52.796Z,99.80
2019-05-29T02:37:57.616Z,99.90
2019-05-29T02:43:02.335Z,99.90
2019-05-29T02:48:07.117Z,99.90
2019-05-29T02:53:11.826Z,99.90
2019-05-29T02:58:16.604Z,99.90
2019-05-29T03:03:23.751Z,99.90
2019-05-29T03:08:32.523Z,99.90
2019-05-29T03:13:36.816Z,99.90
2019-05-29T03:18:41.855Z,99.90
2019-05-29T03:23:46.880Z,99.90
2019-05-29T03:28:51.818Z,99.90
2019-05-29T03:33:56.656Z,99.90
2019-05-29T03:39:01.685Z,99.90
2019-05-29T03:44:10.268Z,99.60
2019-05-29T03:49:13.821Z,99.70
2019-05-29T03:54:18.834Z,99.20
2019-05-29T03:59:23.766Z,99.40
2019-05-29T04:04:29.065Z,98.70
2019-05-29T04:09:35.558Z,98.60
2019-05-29T04:14:40.491Z,97.10
2019-05-29T04:19:46.515Z,96.80
2019-05-29T04:24:55.098Z,96.60
2019-05-29T04:30:00.403Z,95.10
2019-05-29T04:35:05.546Z,96.30
2019-05-29T04:40:10.478Z,95.40
2019-05-29T04:45:15.393Z,95.40
2019-05-29T04:50:20.423Z,94.80
2019-05-29T04:55:25.325Z,94.90
2019-05-29T05:00:30.911Z,94.00
2019-05-29T05:05:37.353Z,93.90
2019-05-29T05:10:42.438Z,92.60
2019-05-29T05:15:47.441Z,92.80
2019-05-29T05:20:52.465Z,92.00
2019-05-29T05:25:57.647Z,91.30
2019-05-29T05:31:02.751Z,91.10
2019-05-29T05:36:07.658Z,90.50
2019-05-29T05:41:12.503Z,89.40
2019-05-29T05:46:17.278Z,89.80
2019-05-29T05:51:22.021Z,89.30
2019-05-29T05:56:27.161Z,87.40
2019-05-29T06:02:09.628Z,87.20
2019-05-29T06:07:16.610Z,85.70
2019-05-29T06:12:21.494Z,83.70
2019-05-29T06:17:26.419Z,85.70
2019-05-29T06:23:08.691Z,82.10
2019-05-29T06:28:13.772Z,80.20
2019-05-29T06:33:18.672Z,79.10
2019-05-29T06:38:23.824Z,80.40
2019-05-29T06:43:28.892Z,77.90
2019-05-29T06:48:52.344Z,78.20
2019-05-29T06:53:41.753Z,78.50
2019-05-29T06:58:48.381Z,79.90
2019-05-29T07:04:10.574Z,73.60
2019-05-29T07:09:00.149Z,72.20
2019-05-29T07:14:05.361Z,72.20
2019-05-29T07:19:45.070Z,71.00
2019-05-29T07:24:17.187Z,68.10
2019-05-29T07:29:22.099Z,68.80
2019-05-29T07:34:27.038Z,64.00
2019-05-29T07:39:32.107Z,60.40
2019-05-29T07:44:37.994Z,57.30
2019-05-29T07:49:45.308Z,57.00
2019-05-29T07:54:50.092Z,56.60
2019-05-29T07:59:55.469Z,56.70
2019-05-29T08:05:00.600Z,56.60
2019-05-29T08:10:07.203Z,54.30
2019-05-29T08:15:13.178Z,54.10
2019-05-29T08:20:18.221Z,55.20
2019-05-29T08:25:23.360Z,55.30
2019-05-29T08:30:28.555Z,56.60
2019-05-29T08:35:33.552Z,55.80
2019-05-29T08:40:38.826Z,56.60
2019-05-29T08:45:45.534Z,55.80
2019-05-29T08:50:50.675Z,52.40
2019-05-29T08:55:56.947Z,52.20
2019-05-29T09:01:01.818Z,50.50
2019-05-29T09:06:09.229Z,51.70
2019-05-29T09:11:13.893Z,51.40
2019-05-29T09:16:18.986Z,52.40
2019-05-29T09:21:26.607Z,55.50
2019-05-29T09:26:30.888Z,51.50
2019-05-29T09:31:36.752Z,47.90
2019-05-29T09:37:19.054Z,47.30
2019-05-29T09:42:25.333Z,48.00
2019-05-29T09:47:30.536Z,47.50
2019-05-29T09:52:35.603Z,43.90
2019-05-29T09:57:40.576Z,42.30
2019-05-29T10:02:45.531Z,41.50
2019-05-29T10:07:50.818Z,39.80
2019-05-29T10:12:58.134Z,42.90
2019-05-29T10:18:07.413Z,44.80
2019-05-29T10:23:09.997Z,42.70
2019-05-29T10:28:14.858Z,34.90
2019-05-29T10:33:19.862Z,29.00
2019-05-29T10:38:24.760Z,31.20
2019-05-29T10:43:34.290Z,32.10
2019-05-29T10:48:36.417Z,35.40
2019-05-29T10:53:41.442Z,35.50
2019-05-29T10:58:52.450Z,34.60
2019-05-29T11:03:53.957Z,36.10
2019-05-29T11:08:59.197Z,37.70
2019-05-29T11:14:04.187Z,35.70
2019-05-29T11:19:09.120Z,33.90
2019-05-29T11:24:14.196Z,40.00
2019-05-29T11:29:19.055Z,40.80
2019-05-29T11:34:24.066Z,36.50
2019-05-29T11:39:28.983Z,36.00
2019-05-29T11:44:34.646Z,39.80
2019-05-29T11:49:39.533Z,40.70
2019-05-29T11:54:44.455Z,39.20
2019-05-29T11:59:49.616Z,37.20
2019-05-29T12:04:55.135Z,32.90
2019-05-29T12:10:03.553Z,34.00
2019-05-29T12:15:14.442Z,30.10
2019-05-29T12:20:27.168Z,32.40
2019-05-29T12:25:21.628Z,35.50
2019-05-29T12:30:26.887Z,34.20
2019-05-29T12:35:32.059Z,30.00
2019-05-29T12:40:37.128Z,30.90
2019-05-29T12:45:42.121Z,30.30
2019-05-29T12:50:47.197Z,28.80
2019-05-29T12:55:53.801Z,25.70
2019-05-29T13:01:00.532Z,24.10
2019-05-29T13:06:05.603Z,27.00
2019-05-29T13:11:10.421Z,30.00
2019-05-29T13:16:15.903Z,29.70
2019-05-29T13:21:20.993Z,26.20
2019-05-29T13:26:25.987Z,25.00
2019-05-29T13:31:31.131Z,26.00
2019-05-29T13:36:36.190Z,27.30
2019-05-29T13:41:41.255Z,28.10
2019-05-29T13:46:46.214Z,28.70
2019-05-29T13:51:51.537Z,27.10
2019-05-29T13:56:58.981Z,24.90
2019-05-29T14:02:05.789Z,24.20
2019-05-29T14:07:09.964Z,24.20
2019-05-29T14:12:15.611Z,24.40
2019-05-29T14:17:20.566Z,24.70
2019-05-29T14:22:25.659Z,27.20
2019-05-29T14:27:30.946Z,27.60
2019-05-29T14:32:35.939Z,24.80
2019-05-29T14:37:41.210Z,23.20
2019-05-29T14:42:46.002Z,25.60
2019-05-29T14:47:51.198Z,28.00
2019-05-29T14:52:56.238Z,26.10
2019-05-29T14:58:01.280Z,23.80
2019-05-29T15:03:07.404Z,23.20
2019-05-29T15:08:12.438Z,23.00
2019-05-29T15:13:17.360Z,22.40
2019-05-29T15:18:22.263Z,22.20
2019-05-29T15:23:27.509Z,21.50
2019-05-29T15:28:32.962Z,21.20
2019-05-29T15:33:38.178Z,20.70
2019-05-29T15:38:43.067Z,20.60
2019-05-29T15:43:49.384Z,23.70
2019-05-29T15:48:54.319Z,26.00
2019-05-29T15:53:59.043Z,24.60
2019-05-29T15:59:04.122Z,23.00
2019-05-29T16:04:09.636Z,21.60
2019-05-29T16:09:16.317Z,24.70
2019-05-29T16:14:21.397Z,24.90
2019-05-29T16:19:26.396Z,23.40
2019-05-29T16:24:31.335Z,24.00
2019-05-29T16:29:36.101Z,22.60
2019-05-29T16:34:40.972Z,23.50
2019-05-29T16:39:45.835Z,22.90
2019-05-29T16:44:50.706Z,22.80
2019-05-29T16:49:55.627Z,24.00
2019-05-29T16:55:00.635Z,27.00
2019-05-29T17:00:07.631Z,29.00
2019-05-29T17:05:13.642Z,31.40
2019-05-29T17:10:20.152Z,34.10
2019-05-29T17:15:25.552Z,35.90
2019-05-29T17:20:33.928Z,35.40
2019-05-29T17:25:38.925Z,36.40
2019-05-29T17:30:44.003Z,37.10
2019-05-29T17:35:50.104Z,37.50
2019-05-29T17:40:54.971Z,38.90
2019-05-29T17:45:59.842Z,38.80
2019-05-29T17:51:04.914Z,41.90
2019-05-29T17:56:23.328Z,41.30
2019-05-29T18:01:18.128Z,42.50
2019-05-29T18:06:24.521Z,42.20
2019-05-29T18:11:29.897Z,42.40
2019-05-29T18:16:34.991Z,45.20
2019-05-29T18:21:39.815Z,45.60
2019-05-29T18:26:47.201Z,46.80
2019-05-29T18:31:51.289Z,48.20
2019-05-29T18:36:56.202Z,49.70
2019-05-29T18:42:01.139Z,51.20
2019-05-29T18:47:06.073Z,54.30
2019-05-29T18:52:10.954Z,55.60
2019-05-29T18:57:16.303Z,55.70
2019-05-29T19:02:21.437Z,57.10
2019-05-29T19:07:26.252Z,58.20
2019-05-29T19:12:32.113Z,59.80
2019-05-29T19:17:37.319Z,58.80
2019-05-29T19:22:42.577Z,58.80
2019-05-29T19:27:47.399Z,61.30
2019-05-29T19:32:52.201Z,61.70
2019-05-29T19:37:57.084Z,64.00
2019-05-29T19:43:02.574Z,64.70
2019-05-29T19:48:07.341Z,64.60
2019-05-29T19:53:12.277Z,64.30
2019-05-29T19:58:17.134Z,61.10
2019-05-29T20:03:22.041Z,60.80
2019-05-29T20:08:27.049Z,59.90
2019-05-29T20:13:31.900Z,59.60
2019-05-29T20:18:36.932Z,60.30
2019-05-29T20:23:41.681Z,60.00
2019-05-29T20:28:46.410Z,61.70
2019-05-29T20:33:51.276Z,61.50
2019-05-29T20:38:56.134Z,61.30
2019-05-29T20:44:00.992Z,61.10
2019-05-29T20:49:06.243Z,60.60
2019-05-29T20:54:11.032Z,62.60
2019-05-29T20:59:15.821Z,62.50
2019-05-29T21:04:22.808Z,62.50
2019-05-29T21:09:27.785Z,61.60
2019-05-29T21:14:33.482Z,64.00
2019-05-29T21:19:38.515Z,62.50
2019-05-29T21:24:49.984Z,62.10
2019-05-29T21:29:49.857Z,61.40
2019-05-29T21:34:54.810Z,61.40
2019-05-29T21:39:59.562Z,61.00
2019-05-29T21:45:06.199Z,62.30
2019-05-29T21:50:11.546Z,63.40
2019-05-29T21:55:16.490Z,62.30
2019-05-29T22:00:22.977Z,63.30
2019-05-29T22:05:29.658Z,61.90
2019-05-29T22:10:34.789Z,61.90
2019-05-29T22:15:39.752Z,62.10
2019-05-29T22:20:44.593Z,62.80
2019-05-29T22:25:49.509Z,62.70
2019-05-29T22:30:55.331Z,63.60
2019-05-29T22:36:01.802Z,63.50
2019-05-29T22:41:07.838Z,64.80
2019-05-29T22:46:12.791Z,65.90
2019-05-29T22:51:17.880Z,66.80
2019-05-29T22:56:22.778Z,69.40
2019-05-29T23:01:27.689Z,69.40
2019-05-29T23:06:32.541Z,73.10
2019-05-29T23:11:38.149Z,75.20
2019-05-29T23:16:43.023Z,76.50
2019-05-29T23:21:47.945Z,78.30
2019-05-29T23:26:52.963Z,79.90
2019-05-29T23:31:58.906Z,81.80
2019-05-29T23:37:03.826Z,82.30
2019-05-29T23:42:08.640Z,83.60
2019-05-29T23:47:13.508Z,85.10
2019-05-29T23:52:18.228Z,86.50
2019-05-29T23:57:23.083Z,86.50
